Time;durP1;ratioP1;P1;durP2;ratioP2;P2;SDS_P1;SDS_P2;PMS_P1;PMS_P2;Temp;Humidity;BMP_temperature;BMP_pressure;BME280_temperature;BME280_humidity;BME280_pressure;Samples;Min_cycle;Max_cycle;Signal;HPM_P1;HPM_P2
2022/06/04 00:00:04;;;;;;;;;;;12.40;99.90;;;;;;4994452;28;19939;-78
2022/06/04 00:02:30;;;;;;;;;;;12.40;99.90;;;;;;4995144;28;20475;-78
2022/06/04 00:04:56;;;;;;;;;;;12.30;99.90;;;;;;4994304;28;20393;-78
2022/06/04 00:07:21;;;;;;;;;;;12.30;99.90;;;;;;4992296;28;20461;-77
2022/06/04 00:15:32;;;;;;;;;;;12.30;99.90;;;;;;5009889;28;20031;-78
2022/06/04 00:17:59;;;;;;;;;;;12.30;99.90;;;;;;5010111;28;19974;-77
2022/06/04 00:20:24;;;;;;;;;;;12.10;99.90;;;;;;4987996;28;20374;-78
2022/06/04 00:22:57;;;;;;;;;;;12.10;99.90;;;;;;5010714;28;19987;-77
2022/06/04 00:25:22;;;;;;;;;;;12.00;99.90;;;;;;5008421;28;20444;-77
2022/06/04 00:27:48;;;;;;;;;;;12.00;99.90;;;;;;4961655;28;19925;-78
2022/06/04 00:30:14;;;;;;;;;;;12.00;99.90;;;;;;4988199;28;19933;-77
2022/06/04 00:32:39;;;;;;;;;;;12.00;99.90;;;;;;4991545;28;19983;-77
2022/06/04 00:35:05;;;;;;;;;;;11.90;99.90;;;;;;4987756;28;19972;-78
2022/06/04 00:37:33;;;;;;;;;;;11.90;99.90;;;;;;4988912;28;19934;-79
2022/06/04 00:39:59;;;;;;;;;;;12.00;99.90;;;;;;4970772;28;20387;-77
2022/06/04 00:42:25;;;;;;;;;;;12.00;99.90;;;;;;4983906;28;19943;-79
2022/06/04 00:44:51;;;;;;;;;;;11.90;99.90;;;;;;4987106;28;19936;-76
2022/06/04 00:47:26;;;;;;;;;;;11.90;99.90;;;;;;4985474;28;19964;-78
2022/06/04 00:49:51;;;;;;;;;;;11.90;99.90;;;;;;4976914;28;19933;-78
2022/06/04 00:52:17;;;;;;;;;;;11.80;99.90;;;;;;4984097;28;19929;-78
2022/06/04 00:54:45;;;;;;;;;;;11.80;99.90;;;;;;4956154;28;19952;-78
2022/06/04 00:57:22;;;;;;;;;;;11.80;99.90;;;;;;4980605;28;19968;-77
2022/06/04 01:00:07;;;;;;;;;;;11.90;99.90;;;;;;4967198;28;20892;-77
2022/06/04 01:02:35;;;;;;;;;;;11.90;99.90;;;;;;4964382;28;20044;-76
2022/06/04 01:05:26;;;;;;;;;;;11.80;99.90;;;;;;4980866;28;19936;-77
2022/06/04 01:07:53;;;;;;;;;;;11.80;99.90;;;;;;4981576;28;19991;-78
2022/06/04 01:10:26;;;;;;;;;;;11.70;99.90;;;;;;4982898;28;20520;-77
2022/06/04 01:13:07;;;;;;;;;;;11.70;99.90;;;;;;4982545;28;19932;-78
2022/06/04 01:15:32;;;;;;;;;;;11.60;99.90;;;;;;4985044;28;19983;-77
2022/06/04 01:18:10;;;;;;;;;;;11.60;99.90;;;;;;4981219;28;20008;-77
2022/06/04 01:20:54;;;;;;;;;;;11.60;99.90;;;;;;4973227;28;19929;-77
2022/06/04 01:23:19;;;;;;;;;;;11.70;99.90;;;;;;4983269;28;19933;-77
2022/06/04 01:26:04;;;;;;;;;;;11.70;99.90;;;;;;4981383;28;19933;-77
2022/06/04 01:28:31;;;;;;;;;;;11.70;99.90;;;;;;4974521;28;19936;-77
2022/06/04 01:30:58;;;;;;;;;;;11.60;99.90;;;;;;5006339;28;19929;-77
2022/06/04 01:33:36;;;;;;;;;;;11.60;99.90;;;;;;5016267;28;20437;-78
2022/06/04 01:36:06;;;;;;;;;;;11.60;99.90;;;;;;5015605;28;19925;-77
2022/06/04 01:38:35;;;;;;;;;;;11.60;99.90;;;;;;5016395;28;19925;-78
2022/06/04 01:41:07;;;;;;;;;;;11.50;99.90;;;;;;5017241;28;20338;-78
2022/06/04 01:43:38;;;;;;;;;;;11.50;99.90;;;;;;5019802;28;19935;-77
2022/06/04 01:46:36;;;;;;;;;;;11.50;99.90;;;;;;5018824;28;20703;-78
2022/06/04 01:49:15;;;;;;;;;;;11.40;99.90;;;;;;4961670;28;20019;-78
2022/06/04 01:51:41;;;;;;;;;;;11.50;99.90;;;;;;5016610;28;19986;-77
2022/06/04 01:54:13;;;;;;;;;;;11.40;99.90;;;;;;4996891;28;19928;-77
2022/06/04 01:56:43;;;;;;;;;;;11.40;99.90;;;;;;5017869;28;20016;-77
2022/06/04 01:59:20;;;;;;;;;;;11.40;99.90;;;;;;5016725;28;19928;-77
2022/06/04 02:01:46;;;;;;;;;;;11.40;99.90;;;;;;5000144;28;20401;-77
2022/06/04 02:04:18;;;;;;;;;;;11.40;99.90;;;;;;5016177;28;19929;-77
2022/06/04 02:07:29;;;;;;;;;;;11.30;99.90;;;;;;5015705;28;19940;-77
2022/06/04 02:09:35;;;;;;;;;;;11.40;99.90;;;;;;5015534;28;20195;-77
2022/06/04 02:12:02;;;;;;;;;;;11.30;99.90;;;;;;5016467;28;19936;-77
2022/06/04 02:14:28;;;;;;;;;;;11.20;99.90;;;;;;5013509;28;19933;-77
2022/06/04 02:16:57;;;;;;;;;;;11.20;99.90;;;;;;5017584;28;19931;-77
2022/06/04 02:19:23;;;;;;;;;;;11.20;99.90;;;;;;5015644;28;19939;-77
2022/06/04 02:21:49;;;;;;;;;;;11.20;99.90;;;;;;5015148;28;19929;-77
2022/06/04 02:24:14;;;;;;;;;;;11.30;99.90;;;;;;4999525;28;19963;-77
2022/06/04 02:26:44;;;;;;;;;;;11.20;99.90;;;;;;5015207;28;19944;-77
2022/06/04 02:29:10;;;;;;;;;;;11.20;99.90;;;;;;5011925;28;19928;-77
2022/06/04 02:31:42;;;;;;;;;;;11.20;99.90;;;;;;5011176;28;19924;-77
2022/06/04 02:34:23;;;;;;;;;;;11.10;99.90;;;;;;4998363;28;19937;-77
2022/06/04 02:36:49;;;;;;;;;;;11.20;99.90;;;;;;5000536;28;20022;-77
2022/06/04 02:39:20;;;;;;;;;;;11.10;99.90;;;;;;5015771;28;20015;-77
2022/06/04 02:41:52;;;;;;;;;;;11.20;99.90;;;;;;4999382;28;19935;-77
2022/06/04 02:44:28;;;;;;;;;;;11.10;99.90;;;;;;5015229;28;19936;-77
2022/06/04 02:46:56;;;;;;;;;;;11.20;99.90;;;;;;5014823;28;19940;-77
2022/06/04 02:49:25;;;;;;;;;;;11.20;99.90;;;;;;5016358;28;19929;-77
2022/06/04 02:51:52;;;;;;;;;;;11.10;99.90;;;;;;5008188;28;19964;-77
2022/06/04 02:54:26;;;;;;;;;;;11.10;99.90;;;;;;5019154;28;19935;-77
2022/06/04 02:56:53;;;;;;;;;;;11.20;99.90;;;;;;5012117;28;20010;-76
2022/06/04 02:59:20;;;;;;;;;;;11.20;99.90;;;;;;5001844;28;19940;-77
2022/06/04 03:01:47;;;;;;;;;;;11.10;99.90;;;;;;5017908;28;19935;-77
2022/06/04 03:04:13;;;;;;;;;;;11.10;99.90;;;;;;5002087;28;19940;-77
2022/06/04 03:06:39;;;;;;;;;;;11.10;99.90;;;;;;5019519;28;19929;-77
2022/06/04 03:09:06;;;;;;;;;;;11.10;99.90;;;;;;5027956;28;19983;-76
2022/06/04 03:11:43;;;;;;;;;;;11.10;99.90;;;;;;5031602;28;19928;-77
2022/06/04 03:14:09;;;;;;;;;;;11.10;99.90;;;;;;5019781;28;19983;-77
2022/06/04 03:16:36;;;;;;;;;;;11.10;99.90;;;;;;5011535;28;19933;-78
2022/06/04 03:19:03;;;;;;;;;;;11.10;99.90;;;;;;5023569;28;19928;-77
2022/06/04 03:21:29;;;;;;;;;;;11.10;99.90;;;;;;5011759;28;20433;-77
2022/06/04 03:23:55;;;;;;;;;;;11.10;99.90;;;;;;5030589;28;20023;-76
2022/06/04 03:26:21;;;;;;;;;;;11.10;99.90;;;;;;5030068;28;19929;-77
2022/06/04 03:28:46;;;;;;;;;;;11.10;99.90;;;;;;5010690;28;20444;-77
2022/06/04 03:31:12;;;;;;;;;;;11.10;99.90;;;;;;5009562;28;20016;-77
2022/06/04 03:33:38;;;;;;;;;;;11.10;99.90;;;;;;5011834;28;19935;-77
2022/06/04 03:36:04;;;;;;;;;;;11.10;99.90;;;;;;4998210;28;19928;-77
2022/06/04 03:38:30;;;;;;;;;;;11.10;99.90;;;;;;5028809;28;19928;-77
2022/06/04 03:40:55;;;;;;;;;;;11.20;99.90;;;;;;5027981;28;19936;-78
2022/06/04 03:43:21;;;;;;;;;;;11.10;99.90;;;;;;5030733;28;20645;-77
2022/06/04 03:45:46;;;;;;;;;;;11.10;99.90;;;;;;5011338;28;19939;-77
2022/06/04 03:48:12;;;;;;;;;;;11.20;99.90;;;;;;5022967;28;20004;-77
2022/06/04 03:50:38;;;;;;;;;;;11.20;99.90;;;;;;5019616;28;19968;-77
2022/06/04 03:53:04;;;;;;;;;;;11.20;99.90;;;;;;5016773;28;20451;-77
2022/06/04 03:55:30;;;;;;;;;;;11.20;99.90;;;;;;5025707;28;19979;-77
2022/06/04 03:57:55;;;;;;;;;;;11.20;99.90;;;;;;4998463;28;20094;-77
2022/06/04 04:00:23;;;;;;;;;;;11.20;99.90;;;;;;5010861;28;19987;-77
2022/06/04 04:02:52;;;;;;;;;;;11.20;99.90;;;;;;5020805;28;19978;-77
2022/06/04 04:05:20;;;;;;;;;;;11.10;99.90;;;;;;5028557;28;20261;-76
2022/06/04 04:07:46;;;;;;;;;;;11.10;99.90;;;;;;5029378;28;19939;-77
2022/06/04 04:10:12;;;;;;;;;;;11.20;99.90;;;;;;5028411;28;19929;-77
2022/06/04 04:12:40;;;;;;;;;;;11.40;99.90;;;;;;4999490;28;19935;-77
2022/06/04 04:15:06;;;;;;;;;;;11.30;99.90;;;;;;5029220;28;19933;-77
2022/06/04 04:17:32;;;;;;;;;;;11.30;99.90;;;;;;5012956;28;19929;-77
2022/06/04 04:19:57;;;;;;;;;;;11.30;99.90;;;;;;5011984;28;19951;-78
2022/06/04 04:22:24;;;;;;;;;;;11.40;99.90;;;;;;5007125;28;19940;-77
2022/06/04 04:24:50;;;;;;;;;;;11.40;99.90;;;;;;5017792;28;20016;-77
2022/06/04 04:27:15;;;;;;;;;;;11.50;99.90;;;;;;4987179;28;19935;-77
2022/06/04 04:29:41;;;;;;;;;;;11.60;99.90;;;;;;5030595;28;19929;-78
2022/06/04 04:32:07;;;;;;;;;;;11.70;99.90;;;;;;5026621;28;19929;-77
2022/06/04 04:34:33;;;;;;;;;;;11.70;99.90;;;;;;5007591;28;19963;-77
2022/06/04 04:36:59;;;;;;;;;;;11.80;99.90;;;;;;5009109;28;20493;-76
2022/06/04 04:39:24;;;;;;;;;;;11.80;99.90;;;;;;5014077;28;19943;-77
2022/06/04 04:41:50;;;;;;;;;;;12.00;99.90;;;;;;5027224;28;19936;-77
2022/06/04 04:44:16;;;;;;;;;;;12.00;99.90;;;;;;5029007;28;19929;-77
2022/06/04 04:46:41;;;;;;;;;;;13.50;99.90;;;;;;5028960;28;19928;-78
2022/06/04 04:49:08;;;;;;;;;;;14.60;99.90;;;;;;5029811;28;19936;-76
2022/06/04 04:51:34;;;;;;;;;;;14.30;99.90;;;;;;5029222;28;19932;-78
2022/06/04 04:54:00;;;;;;;;;;;15.10;99.90;;;;;;5028923;28;19933;-77
2022/06/04 04:56:26;;;;;;;;;;;16.40;99.90;;;;;;5029142;28;20121;-77
2022/06/04 04:58:52;;;;;;;;;;;17.40;99.90;;;;;;5028003;28;20353;-77
2022/06/04 05:01:22;;;;;;;;;;;17.80;99.90;;;;;;5026886;28;19998;-77
2022/06/04 05:03:48;;;;;;;;;;;18.40;99.90;;;;;;5024619;28;20020;-78
2022/06/04 05:06:15;;;;;;;;;;;18.80;99.90;;;;;;5026152;28;19933;-78
2022/06/04 05:08:41;;;;;;;;;;;19.00;99.90;;;;;;5008513;28;19929;-77
2022/06/04 05:11:12;;;;;;;;;;;19.40;99.90;;;;;;4992058;28;19929;-77
2022/06/04 05:13:37;;;;;;;;;;;20.10;99.90;;;;;;5026300;28;19939;-78
2022/06/04 05:16:04;;;;;;;;;;;19.10;99.90;;;;;;5026885;28;19933;-77
2022/06/04 05:18:29;;;;;;;;;;;20.00;99.90;;;;;;5025822;28;19964;-78
2022/06/04 05:20:55;;;;;;;;;;;19.20;99.90;;;;;;5009778;28;20026;-77
2022/06/04 05:23:21;;;;;;;;;;;18.00;99.90;;;;;;5024073;28;19935;-78
2022/06/04 05:25:47;;;;;;;;;;;18.20;99.90;;;;;;5026952;28;19925;-78
2022/06/04 05:28:14;;;;;;;;;;;19.40;99.90;;;;;;5026007;28;19936;-78
2022/06/04 05:30:39;;;;;;;;;;;19.50;99.90;;;;;;5027878;28;19929;-79
2022/06/04 05:33:07;;;;;;;;;;;19.90;99.90;;;;;;5008018;28;20413;-78
2022/06/04 05:35:33;;;;;;;;;;;19.90;99.90;;;;;;4996975;28;19933;-78
2022/06/04 05:37:59;;;;;;;;;;;20.00;99.90;;;;;;4991676;28;19928;-78
2022/06/04 05:40:24;;;;;;;;;;;19.90;99.90;;;;;;4996331;28;19979;-82
2022/06/04 05:42:50;;;;;;;;;;;19.60;99.90;;;;;;5007756;28;19935;-78
2022/06/04 05:45:16;;;;;;;;;;;18.80;99.90;;;;;;5025685;28;19931;-77
2022/06/04 05:47:41;;;;;;;;;;;17.50;99.90;;;;;;5024853;28;19935;-78
2022/06/04 05:50:07;;;;;;;;;;;17.60;99.90;;;;;;5025307;28;19940;-78
2022/06/04 05:52:33;;;;;;;;;;;17.10;99.90;;;;;;5025630;28;20306;-78
2022/06/04 05:54:58;;;;;;;;;;;16.80;99.90;;;;;;5024351;28;19936;-78
2022/06/04 05:57:25;;;;;;;;;;;17.40;99.90;;;;;;5010361;28;19943;-78
2022/06/04 05:59:50;;;;;;;;;;;16.90;99.90;;;;;;4995539;28;20823;-79
2022/06/04 06:02:16;;;;;;;;;;;17.00;99.90;;;;;;5020052;28;20390;-78
2022/06/04 06:04:41;;;;;;;;;;;16.90;99.90;;;;;;5025397;28;19933;-78
2022/06/04 06:07:07;;;;;;;;;;;17.10;99.90;;;;;;5026009;28;19951;-79
2022/06/04 06:09:33;;;;;;;;;;;17.20;99.90;;;;;;5023827;28;20048;-78
2022/06/04 06:11:59;;;;;;;;;;;17.10;99.90;;;;;;5024537;28;19928;-78
2022/06/04 06:14:25;;;;;;;;;;;16.70;99.90;;;;;;5010987;28;20015;-78
2022/06/04 06:16:51;;;;;;;;;;;17.40;99.90;;;;;;5024363;28;19929;-78
2022/06/04 06:19:18;;;;;;;;;;;17.30;99.90;;;;;;5018182;28;19987;-78
2022/06/04 06:21:44;;;;;;;;;;;17.50;99.90;;;;;;5026093;28;19933;-78
2022/06/04 06:24:10;;;;;;;;;;;17.40;99.90;;;;;;5010382;28;20306;-80
2022/06/04 06:26:48;;;;;;;;;;;17.50;99.90;;;;;;5032092;28;20405;-78
2022/06/04 06:29:15;;;;;;;;;;;18.10;99.90;;;;;;5028950;28;19933;-78
2022/06/04 06:31:41;;;;;;;;;;;18.60;99.90;;;;;;4992093;28;20018;-78
2022/06/04 06:34:08;;;;;;;;;;;18.60;99.90;;;;;;5010607;28;20332;-79
2022/06/04 06:36:34;;;;;;;;;;;18.30;99.90;;;;;;5031960;28;19928;-80
2022/06/04 06:39:00;;;;;;;;;;;18.30;99.90;;;;;;4998175;28;19976;-78
2022/06/04 06:41:26;;;;;;;;;;;18.20;99.90;;;;;;5027337;28;19929;-79
2022/06/04 06:43:52;;;;;;;;;;;18.50;99.90;;;;;;5028846;28;19929;-79
2022/06/04 06:46:25;;;;;;;;;;;18.30;99.90;;;;;;5028311;28;19983;-79
2022/06/04 06:48:53;;;;;;;;;;;18.00;99.90;;;;;;5027980;28;20301;-79
2022/06/04 06:51:21;;;;;;;;;;;18.30;99.90;;;;;;5009872;28;19928;-79
2022/06/04 06:53:46;;;;;;;;;;;18.70;99.90;;;;;;5029321;28;19928;-79
2022/06/04 06:56:14;;;;;;;;;;;18.70;99.90;;;;;;5031066;28;19991;-77
2022/06/04 06:58:39;;;;;;;;;;;18.20;99.90;;;;;;5031628;28;19933;-79
2022/06/04 07:01:05;;;;;;;;;;;18.50;99.90;;;;;;5012718;28;19998;-81
2022/06/04 07:03:31;;;;;;;;;;;18.40;99.90;;;;;;5016392;28;19929;-78
2022/06/04 07:05:57;;;;;;;;;;;18.10;99.90;;;;;;5030781;28;19929;-79
2022/06/04 07:08:23;;;;;;;;;;;18.50;99.90;;;;;;5012851;28;19929;-79
2022/06/04 07:10:49;;;;;;;;;;;18.90;99.90;;;;;;5028910;28;19974;-79
2022/06/04 07:13:14;;;;;;;;;;;18.90;99.90;;;;;;5023413;28;20527;-79
2022/06/04 07:15:41;;;;;;;;;;;19.00;99.90;;;;;;5013106;28;19933;-80
2022/06/04 07:18:09;;;;;;;;;;;19.20;99.90;;;;;;5024630;28;19935;-78
2022/06/04 07:20:36;;;;;;;;;;;19.50;99.90;;;;;;5008104;28;19933;-79
2022/06/04 07:23:02;;;;;;;;;;;19.50;99.90;;;;;;5026020;28;19933;-79
2022/06/04 07:25:28;;;;;;;;;;;19.70;99.90;;;;;;5002385;28;19929;-80
2022/06/04 07:27:54;;;;;;;;;;;19.80;99.90;;;;;;5011727;28;19940;-84
2022/06/04 07:30:19;;;;;;;;;;;19.50;99.90;;;;;;5009880;28;20051;-80
2022/06/04 07:32:45;;;;;;;;;;;19.10;99.90;;;;;;5029440;28;19933;-79
2022/06/04 07:35:11;;;;;;;;;;;19.10;99.90;;;;;;5002392;28;19939;-79
2022/06/04 07:37:43;;;;;;;;;;;19.00;99.90;;;;;;5029614;28;19935;-78
2022/06/04 07:40:09;;;;;;;;;;;18.90;99.90;;;;;;5027904;28;19998;-80
2022/06/04 07:42:35;;;;;;;;;;;18.70;99.90;;;;;;5019017;28;19975;-79
2022/06/04 07:45:01;;;;;;;;;;;18.90;99.90;;;;;;5027968;28;20371;-80
2022/06/04 07:47:26;;;;;;;;;;;18.80;99.90;;;;;;5011749;28;20302;-79
2022/06/04 07:49:55;;;;;;;;;;;19.50;99.90;;;;;;5008056;28;19925;-79
2022/06/04 07:52:20;;;;;;;;;;;19.50;99.90;;;;;;5009718;28;20301;-84
2022/06/04 07:54:46;;;;;;;;;;;19.70;99.90;;;;;;5015233;28;19929;-80
2022/06/04 07:57:11;;;;;;;;;;;19.40;99.90;;;;;;5007034;28;19971;-79
2022/06/04 07:59:37;;;;;;;;;;;20.00;99.90;;;;;;5011560;28;19933;-79
2022/06/04 08:02:03;;;;;;;;;;;19.60;99.90;;;;;;5021515;28;19924;-79
2022/06/04 08:04:29;;;;;;;;;;;19.50;99.90;;;;;;5019063;28;20441;-80
2022/06/04 08:06:54;;;;;;;;;;;20.40;99.90;;;;;;5020129;28;19937;-79
2022/06/04 08:09:20;;;;;;;;;;;19.60;99.90;;;;;;5018704;28;20385;-78
2022/06/04 08:11:46;;;;;;;;;;;20.10;99.90;;;;;;5020385;28;21450;-80
2022/06/04 08:14:21;;;;;;;;;;;19.80;99.90;;;;;;5027997;28;20601;-78
2022/06/04 08:16:51;;;;;;;;;;;20.40;99.90;;;;;;5009797;28;20435;-80
2022/06/04 08:19:17;;;;;;;;;;;19.90;99.90;;;;;;5027108;28;19929;-79
2022/06/04 08:21:43;;;;;;;;;;;20.50;99.90;;;;;;5012663;28;20010;-79
2022/06/04 08:24:10;;;;;;;;;;;20.80;99.90;;;;;;5009640;28;19952;-79
2022/06/04 08:26:35;;;;;;;;;;;20.80;99.90;;;;;;5027002;28;20368;-80
2022/06/04 08:29:01;;;;;;;;;;;20.50;99.90;;;;;;4959492;28;1940667;-79
2022/06/04 08:31:27;;;;;;;;;;;20.60;99.90;;;;;;5030042;28;20616;-79
2022/06/04 08:33:52;;;;;;;;;;;20.90;99.90;;;;;;5029051;28;19929;-80
2022/06/04 08:36:19;;;;;;;;;;;21.30;99.90;;;;;;5026015;28;19928;-80
2022/06/04 08:38:45;;;;;;;;;;;21.00;99.90;;;;;;5007732;28;19936;-79
2022/06/04 08:41:29;;;;;;;;;;;21.40;99.90;;;;;;5027761;28;20469;-80
2022/06/04 08:44:09;;;;;;;;;;;21.00;99.90;;;;;;5028332;28;19933;-81
2022/06/04 08:46:51;;;;;;;;;;;21.50;99.90;;;;;;5027589;28;20019;-81
2022/06/04 08:49:29;;;;;;;;;;;22.00;99.90;;;;;;5007092;28;19928;-79
2022/06/04 08:51:56;;;;;;;;;;;21.40;99.90;;;;;;5027259;28;19939;-78
2022/06/04 08:59:58;;;;;;;;;;;20.80;99.90;;;;;;5010728;28;19992;-79
2022/06/04 09:02:29;;;;;;;;;;;20.20;99.90;;;;;;5025115;28;19936;-79
2022/06/04 09:05:01;;;;;;;;;;;20.30;99.90;;;;;;5015656;28;19940;-79
2022/06/04 09:07:31;;;;;;;;;;;20.40;99.90;;;;;;5017988;28;19929;-79
2022/06/04 09:10:06;;;;;;;;;;;20.10;99.90;;;;;;5013441;28;20114;-77
2022/06/04 09:12:31;;;;;;;;;;;19.90;99.90;;;;;;4993173;28;19929;-79
2022/06/04 09:15:15;;;;;;;;;;;20.00;99.90;;;;;;5015286;28;20089;-78
2022/06/04 09:17:50;;;;;;;;;;;20.20;99.90;;;;;;5011223;28;20819;-79
2022/06/04 09:20:31;;;;;;;;;;;20.70;99.90;;;;;;4996467;28;19939;-79
2022/06/04 09:23:00;;;;;;;;;;;20.10;99.90;;;;;;5012518;28;19967;-79
2022/06/04 09:25:28;;;;;;;;;;;19.70;99.90;;;;;;4998166;28;19929;-80
2022/06/04 09:27:56;;;;;;;;;;;20.10;99.90;;;;;;5013315;28;19929;-80
2022/06/04 09:30:48;;;;;;;;;;;20.60;99.90;;;;;;5009652;28;20012;-79
2022/06/04 09:33:32;;;;;;;;;;;20.50;99.90;;;;;;5013105;28;19974;-79
2022/06/04 09:35:58;;;;;;;;;;;20.70;99.90;;;;;;5009935;28;20307;-79
2022/06/04 09:38:25;;;;;;;;;;;20.80;99.90;;;;;;5020442;28;19933;-82
2022/06/04 09:40:59;;;;;;;;;;;20.50;99.90;;;;;;5015932;28;19974;-78
2022/06/04 09:43:24;;;;;;;;;;;20.80;99.90;;;;;;5015330;28;19986;-79
2022/06/04 09:45:52;;;;;;;;;;;20.80;99.90;;;;;;4994495;28;19928;-79
2022/06/04 09:48:22;;;;;;;;;;;21.00;99.90;;;;;;5005715;28;19932;-79
2022/06/04 09:50:53;;;;;;;;;;;21.20;99.90;;;;;;5024739;28;19928;-80
2022/06/04 09:53:21;;;;;;;;;;;21.10;99.90;;;;;;5007623;28;19994;-79
2022/06/04 09:55:50;;;;;;;;;;;21.00;99.90;;;;;;5021400;28;19990;-78
2022/06/04 09:58:18;;;;;;;;;;;20.50;99.90;;;;;;5020447;28;19963;-79
2022/06/04 10:00:54;;;;;;;;;;;20.30;99.90;;;;;;5023860;28;20023;-79
2022/06/04 10:03:19;;;;;;;;;;;20.40;99.90;;;;;;5014247;28;20051;-79
2022/06/04 10:05:50;;;;;;;;;;;20.10;99.90;;;;;;5023676;28;19959;-79
2022/06/04 10:08:20;;;;;;;;;;;21.00;99.90;;;;;;5023675;28;20478;-79
2022/06/04 10:10:46;;;;;;;;;;;20.80;99.90;;;;;;5004866;28;19936;-81
2022/06/04 10:15:57;;;;;;;;;;;21.20;99.90;;;;;;5016044;28;19947;-79
2022/06/04 10:18:23;;;;;;;;;;;21.00;99.90;;;;;;5007648;28;20394;-82
2022/06/04 10:20:57;;;;;;;;;;;21.00;99.90;;;;;;5021270;28;20027;-80
2022/06/04 10:23:23;;;;;;;;;;;21.10;99.90;;;;;;5021708;28;19935;-80
2022/06/04 10:25:58;;;;;;;;;;;21.30;99.90;;;;;;5019647;28;20370;-80
2022/06/04 10:28:29;;;;;;;;;;;20.90;99.90;;;;;;5015819;28;19928;-79
2022/06/04 10:31:24;;;;;;;;;;;20.70;99.90;;;;;;5010581;28;19928;-79
2022/06/04 10:33:53;;;;;;;;;;;21.50;99.90;;;;;;4992930;28;21134;-79
2022/06/04 10:36:25;;;;;;;;;;;21.80;99.90;;;;;;5018655;28;20794;-79
2022/06/04 10:38:54;;;;;;;;;;;21.60;99.90;;;;;;5023842;28;20019;-80
2022/06/04 10:41:19;;;;;;;;;;;21.80;99.90;;;;;;5017849;28;19935;-80
2022/06/04 10:43:58;;;;;;;;;;;22.10;99.90;;;;;;5013005;28;19929;-79
2022/06/04 10:46:24;;;;;;;;;;;22.50;99.90;;;;;;5017799;28;19957;-79
2022/06/04 10:48:59;;;;;;;;;;;22.50;99.90;;;;;;5023336;28;20039;-77
2022/06/04 10:51:27;;;;;;;;;;;22.90;99.90;;;;;;5019462;28;19929;-79
2022/06/04 10:53:56;;;;;;;;;;;23.30;99.90;;;;;;5010039;28;19937;-79
2022/06/04 10:56:25;;;;;;;;;;;23.20;99.90;;;;;;5015496;28;19990;-79
2022/06/04 10:59:02;;;;;;;;;;;23.20;99.90;;;;;;5006552;28;20688;-81
2022/06/04 11:02:00;;;;;;;;;;;23.80;99.90;;;;;;5017337;28;19925;-80
2022/06/04 11:04:34;;;;;;;;;;;24.00;99.90;;;;;;4984035;28;19940;-80
2022/06/04 11:07:09;;;;;;;;;;;24.40;99.90;;;;;;5018191;28;19935;-78
2022/06/04 11:09:36;;;;;;;;;;;23.70;99.90;;;;;;5012875;28;20027;-81
2022/06/04 11:12:10;;;;;;;;;;;23.60;99.90;;;;;;5018537;28;19990;-79
2022/06/04 11:14:39;;;;;;;;;;;23.90;99.90;;;;;;5005740;28;20352;-81
2022/06/04 11:17:14;;;;;;;;;;;22.40;99.90;;;;;;5016043;28;19928;-80
2022/06/04 11:19:49;;;;;;;;;;;23.40;99.90;;;;;;5028213;28;19935;-80
2022/06/04 11:22:18;;;;;;;;;;;23.70;99.90;;;;;;5028150;28;19933;-80
2022/06/04 11:24:48;;;;;;;;;;;23.70;99.90;;;;;;5020581;28;19991;-81
2022/06/04 11:27:16;;;;;;;;;;;23.60;99.90;;;;;;5012426;28;19983;-79
2022/06/04 11:29:42;;;;;;;;;;;23.60;99.90;;;;;;5016681;28;20051;-82
2022/06/04 11:32:13;;;;;;;;;;;23.50;99.90;;;;;;5026479;28;19985;-81
2022/06/04 11:34:50;;;;;;;;;;;23.70;99.90;;;;;;5008861;28;20095;-81
2022/06/04 11:37:21;;;;;;;;;;;23.40;99.90;;;;;;5028184;28;19972;-80
2022/06/04 11:39:50;;;;;;;;;;;23.50;99.90;;;;;;5025189;28;19925;-81
2022/06/04 11:42:34;;;;;;;;;;;23.20;99.90;;;;;;4989432;28;19929;-79
2022/06/04 11:45:00;;;;;;;;;;;24.00;99.90;;;;;;5027152;28;19932;-79
2022/06/04 11:47:46;;;;;;;;;;;24.10;99.90;;;;;;5018900;28;19987;-82
2022/06/04 11:50:23;;;;;;;;;;;24.10;99.90;;;;;;5027577;28;20015;-80
2022/06/04 11:52:49;;;;;;;;;;;24.70;99.90;;;;;;5021321;28;19972;-81
2022/06/04 11:55:17;;;;;;;;;;;23.90;99.90;;;;;;5023764;28;20024;-79
2022/06/04 11:57:49;;;;;;;;;;;24.20;99.90;;;;;;5019662;28;19929;-80
2022/06/04 12:00:24;;;;;;;;;;;24.40;99.90;;;;;;5011257;28;20052;-78
2022/06/04 12:02:57;;;;;;;;;;;24.80;99.90;;;;;;5029194;28;19972;-78
2022/06/04 12:05:23;;;;;;;;;;;24.60;99.90;;;;;;5030331;28;19929;-80
2022/06/04 12:07:52;;;;;;;;;;;24.10;99.90;;;;;;5013131;28;19982;-79
2022/06/04 12:10:18;;;;;;;;;;;24.90;99.90;;;;;;5019153;28;20019;-81
2022/06/04 12:13:05;;;;;;;;;;;25.00;99.90;;;;;;5021307;28;19939;-80
2022/06/04 12:15:54;;;;;;;;;;;24.60;99.90;;;;;;5027725;28;20628;-80
2022/06/04 12:18:29;;;;;;;;;;;24.70;99.90;;;;;;4999616;28;20676;-78
2022/06/04 12:26:34;;;;;;;;;;;24.60;99.90;;;;;;5021836;28;20396;-81
2022/06/04 12:29:00;;;;;;;;;;;24.50;99.60;;;;;;5010711;28;19951;-81
2022/06/04 12:31:27;;;;;;;;;;;24.00;96.70;;;;;;4997346;28;20440;-80
2022/06/04 12:33:54;;;;;;;;;;;24.50;99.70;;;;;;5024424;28;19929;-80
2022/06/04 12:36:25;;;;;;;;;;;24.20;99.90;;;;;;5007849;28;19991;-81
2022/06/04 12:38:59;;;;;;;;;;;24.20;99.90;;;;;;5025394;28;19933;-80
2022/06/04 12:41:25;;;;;;;;;;;24.30;99.90;;;;;;5027002;28;20285;-80
2022/06/04 12:43:58;;;;;;;;;;;24.60;99.90;;;;;;5024548;28;19939;-79
2022/06/04 12:46:24;;;;;;;;;;;24.30;99.90;;;;;;5023879;28;20329;-79
2022/06/04 12:48:51;;;;;;;;;;;24.70;99.80;;;;;;4990226;28;19935;-79
2022/06/04 12:51:20;;;;;;;;;;;24.80;97.90;;;;;;5022346;28;20601;-78
2022/06/04 12:53:51;;;;;;;;;;;23.90;99.10;;;;;;5021668;28;20382;-81
2022/06/04 12:56:25;;;;;;;;;;;24.00;98.60;;;;;;5013832;28;19929;-79
2022/06/04 12:58:55;;;;;;;;;;;24.30;99.90;;;;;;5021580;28;20346;-79
2022/06/04 13:01:23;;;;;;;;;;;24.80;99.40;;;;;;4989380;28;19991;-79
2022/06/04 13:04:09;;;;;;;;;;;24.50;98.70;;;;;;5022406;28;20788;-80
2022/06/04 13:06:37;;;;;;;;;;;24.90;99.90;;;;;;5002564;28;19940;-77
2022/06/04 13:09:05;;;;;;;;;;;24.90;99.20;;;;;;5016740;28;20581;-80
2022/06/04 13:11:34;;;;;;;;;;;24.50;97.70;;;;;;5005421;28;19933;-79
2022/06/04 13:14:02;;;;;;;;;;;23.90;97.30;;;;;;5024937;28;19936;-81
2022/06/04 13:16:29;;;;;;;;;;;23.80;95.80;;;;;;4999216;28;19951;-77
2022/06/04 13:19:12;;;;;;;;;;;23.20;98.10;;;;;;5022384;28;19940;-80
2022/06/04 13:21:45;;;;;;;;;;;23.50;99.00;;;;;;5022840;28;20031;-79
2022/06/04 13:24:16;;;;;;;;;;;23.40;99.90;;;;;;5022443;28;20382;-77
2022/06/04 13:27:01;;;;;;;;;;;23.30;98.20;;;;;;5020723;28;20119;-79
2022/06/04 13:29:28;;;;;;;;;;;23.10;96.60;;;;;;5021324;28;20051;-81
2022/06/04 13:32:02;;;;;;;;;;;23.00;99.90;;;;;;5023226;28;19976;-78
2022/06/04 13:34:28;;;;;;;;;;;23.00;97.10;;;;;;5021730;28;19933;-78
2022/06/04 13:37:12;;;;;;;;;;;23.00;97.50;;;;;;5021379;28;20483;-78
2022/06/04 13:39:38;;;;;;;;;;;22.50;96.20;;;;;;5022863;28;19936;-78
2022/06/04 13:42:13;;;;;;;;;;;22.40;99.20;;;;;;5023101;28;19933;-79
2022/06/04 13:44:43;;;;;;;;;;;22.50;99.50;;;;;;5021780;28;20010;-79
2022/06/04 13:47:12;;;;;;;;;;;22.30;97.00;;;;;;5004180;28;19929;-78
2022/06/04 13:49:38;;;;;;;;;;;22.60;96.00;;;;;;5020923;28;19933;-79
2022/06/04 13:52:10;;;;;;;;;;;22.20;96.30;;;;;;4984231;28;19978;-79
2022/06/04 13:54:37;;;;;;;;;;;22.40;95.70;;;;;;5022870;28;20373;-79
2022/06/04 13:57:11;;;;;;;;;;;22.70;95.30;;;;;;4999959;28;19928;-78
2022/06/04 13:59:43;;;;;;;;;;;22.70;98.50;;;;;;5028010;28;20056;-79
2022/06/04 14:02:16;;;;;;;;;;;22.80;97.00;;;;;;4990205;28;19929;-78
2022/06/04 14:07:34;;;;;;;;;;;22.40;95.80;;;;;;5007724;28;19959;-79
2022/06/04 14:10:00;;;;;;;;;;;22.70;96.90;;;;;;5021784;28;19971;-78
2022/06/04 14:12:37;;;;;;;;;;;23.20;97.70;;;;;;5019331;28;19933;-79
2022/06/04 14:15:10;;;;;;;;;;;23.40;96.30;;;;;;5008081;28;20648;-78
2022/06/04 14:17:54;;;;;;;;;;;23.60;97.20;;;;;;5023615;28;19936;-78
2022/06/04 14:20:43;;;;;;;;;;;24.00;97.50;;;;;;5027471;28;19935;-79
2022/06/04 14:23:25;;;;;;;;;;;24.60;99.10;;;;;;5007421;28;20079;-78
2022/06/04 14:26:02;;;;;;;;;;;24.50;99.40;;;;;;5025801;28;20071;-80
2022/06/04 14:28:36;;;;;;;;;;;25.10;98.50;;;;;;5006820;28;19978;-81
2022/06/04 14:31:14;;;;;;;;;;;24.90;96.40;;;;;;5027387;28;19929;-78
2022/06/04 14:33:41;;;;;;;;;;;24.10;95.10;;;;;;5024537;28;19964;-78
2022/06/04 14:36:15;;;;;;;;;;;24.20;97.40;;;;;;4979883;28;19933;-78
2022/06/04 14:38:41;;;;;;;;;;;23.90;99.90;;;;;;5013636;28;19928;-80
2022/06/04 14:41:11;;;;;;;;;;;23.90;99.90;;;;;;4998380;28;19940;-80
2022/06/04 14:43:43;;;;;;;;;;;23.60;99.90;;;;;;5017359;28;19924;-78
2022/06/04 14:46:15;;;;;;;;;;;23.90;99.60;;;;;;5002802;28;20020;-78
2022/06/04 14:48:48;;;;;;;;;;;23.00;97.20;;;;;;5004452;28;20442;-79
2022/06/04 14:51:26;;;;;;;;;;;23.10;97.20;;;;;;4998848;28;20378;-78